^^
Datos históricos de la estación: Murcia-Puente Tocinos
Diario Informe para Enero 5, 2019 Unidades:  Métrico    Ingés   Ambas
Diario Semanal Mensual Anual
  Máxima: Mínima: Promedio:
Temperatura: 19.5 °C 10.6 °C 13.9 °C
Punto de rocio: 9.6 °C 3.9 °C 7.5 °C
Humedad: 81% 36% 67%
Velocidad viento: 27km/h 0km/h 7.4km/h
Racha viento: 51.8km/h - -
Viento- - Sur
Presión: 1003.1 hPa 998.1 hPa -
Precipitación: 2.3 mm    
 
 
Tabla de datos para Enero 5, 2019
Hora Temperatura Punto de rocio Presión Viento Velocidad viento Racha viento Humedad Intensidad lluvia(por hora) Nubes
00:04 14.5 °C 7.3 °C 1003.1 hPa SSO 5 km/h 14.8 km/h 62% 0.0 mm
00:09 14.5 °C 7.3 °C 1003.1 hPa Sur 5.4 km/h 12.9 km/h 62% 0.0 mm
00:14 14.5 °C 7.4 °C 1003.1 hPa ESE 6.5 km/h 8.4 km/h 62.3% 0.0 mm
00:19 14.6 °C 7.4 °C 1003.1 hPa ESE 5.5 km/h 8.4 km/h 62% 0.0 mm
00:24 14.6 °C 7.3 °C 1003.1 hPa ESE 3.9 km/h 11.9 km/h 62% 0.0 mm
00:29 14.5 °C 7.3 °C 1003.1 hPa ESE 4.6 km/h 11.3 km/h 62% 0.0 mm
00:34 14.5 °C 7.4 °C 1003.1 hPa Este 5.8 km/h 8.7 km/h 62.4% 0.0 mm
00:39 14.5 °C 7.6 °C 1003.1 hPa ESE 4.8 km/h 9.7 km/h 63% 0.0 mm
00:44 14.5 °C 7.6 °C 1003.1 hPa SSO 3.2 km/h 9.7 km/h 63% 0.0 mm
00:49 14.5 °C 7.6 °C 1003.1 hPa SE 2.9 km/h 8 km/h 63% 0.0 mm
00:54 14.6 °C 7.6 °C 1003.0 hPa SE 2.2 km/h 5.6 km/h 63% 0.0 mm
00:59 14.5 °C 7.6 °C 1003.0 hPa SE 2.5 km/h 7.4 km/h 63% 0.0 mm
01:04 14.5 °C 7.5 °C 1003.0 hPa Este 2.9 km/h 8 km/h 63% 0.0 mm
01:09 14.4 °C 7.4 °C 1002.9 hPa Este 3.3 km/h 9.3 km/h 63% 0.0 mm
01:14 14.4 °C 7.6 °C 1002.9 hPa ESE 3.9 km/h 9.7 km/h 63.9% 0.0 mm
01:19 14.4 °C 7.7 °C 1003.0 hPa SSE 3.6 km/h 8 km/h 64% 0.0 mm
01:24 14.4 °C 7.7 °C 1003.0 hPa SSE 3.2 km/h 8 km/h 64% 0.0 mm
01:29 14.4 °C 7.8 °C 1003.0 hPa SSE 2.9 km/h 9.3 km/h 64.7% 0.0 mm
01:34 14.4 °C 7.7 °C 1003.0 hPa Sur 2.2 km/h 9.7 km/h 64.1% 0.0 mm
01:39 14.4 °C 7.9 °C 1002.9 hPa Sur 3.2 km/h 8 km/h 64.9% 0.0 mm
01:44 14.4 °C 7.9 °C 1002.9 hPa Sur 4.7 km/h 8 km/h 65% 0.0 mm
01:49 14.4 °C 7.9 °C 1002.9 hPa Sur 3.8 km/h 5.8 km/h 65% 0.0 mm
01:54 14.3 °C 7.8 °C 1002.7 hPa NNO 2.2 km/h 6.4 km/h 65% 0.0 mm
01:59 14.3 °C 7.9 °C 1002.7 hPa North 2.2 km/h 5.6 km/h 65.6% 0.0 mm
02:04 14.2 °C 7.9 °C 1002.7 hPa North 2.2 km/h 5.6 km/h 66% 0.0 mm
02:09 14.1 °C 7.8 °C 1002.7 hPa North 2.2 km/h 4.8 km/h 66.1% 0.0 mm
02:14 14.1 °C 7.9 °C 1002.7 hPa North 2.2 km/h 5.8 km/h 66.4% 0.0 mm
02:19 14 °C 7.8 °C 1002.8 hPa North 2.2 km/h 6.4 km/h 66.2% 0.0 mm
02:24 13.9 °C 8.1 °C 1002.8 hPa North 2.2 km/h 6.4 km/h 67.7% 0.0 mm
02:29 13.9 °C 8.1 °C 1002.8 hPa NNE 1.4 km/h 3.2 km/h 68% 0.0 mm
02:34 13.9 °C 8.1 °C 1002.8 hPa Calm     68% 0.0 mm
02:39 13.9 °C 8.1 °C 1002.7 hPa Calm   5.6 km/h 68% 0.0 mm
02:44 13.9 °C 8.1 °C 1002.7 hPa Calm   6.4 km/h 68% 0.0 mm
02:49 13.8 °C 8.2 °C 1002.7 hPa NNE 1.2 km/h 6.4 km/h 69% 0.0 mm
02:54 13.8 °C 8.3 °C 1002.6 hPa NNE 3.2 km/h 6.4 km/h 69.5% 0.0 mm
02:59 13.7 °C 8.3 °C 1002.6 hPa NNE 3.2 km/h 5.6 km/h 70% 0.0 mm
03:04 13.6 °C 8.2 °C 1002.6 hPa NNE 3.2 km/h 5.8 km/h 70% 0.0 mm
03:09 13.5 °C 8.2 °C 1002.4 hPa NNE 3.5 km/h 9.3 km/h 70.4% 0.0 mm
03:14 13.4 °C 8.2 °C 1002.4 hPa NNE 3.9 km/h 9.7 km/h 71.1% 0.0 mm
03:19 13.3 °C 8.3 °C 1002.4 hPa NNE 3.9 km/h 8 km/h 72% 0.0 mm
03:24 13.2 °C 8.3 °C 1002.3 hPa NNE 3.9 km/h 8 km/h 72% 0.0 mm
03:29 13.1 °C 8.3 °C 1002.3 hPa NNE 3.6 km/h 7.4 km/h 72.6% 0.0 mm
03:34 13 °C 8.3 °C 1002.3 hPa NNE 3.2 km/h 8 km/h 73% 0.0 mm
03:39 12.9 °C 8.2 °C 1002.2 hPa NNE 3.5 km/h 8.4 km/h 73.1% 0.0 mm
03:44 12.8 °C 8.3 °C 1002.2 hPa NNE 3.9 km/h 8.4 km/h 74.2% 0.0 mm
03:49 12.7 °C 8.3 °C 1002.2 hPa NNE 3.9 km/h 8 km/h 75% 0.0 mm
03:54 12.5 °C 8.4 °C 1002.0 hPa NNE 3.9 km/h 8 km/h 75.9% 0.0 mm
03:59 12.4 °C 8.2 °C 1002.0 hPa NNE 3.4 km/h 7.6 km/h 76% 0.0 mm
04:04 12.3 °C 8.3 °C 1002.0 hPa NNE 2.9 km/h 8 km/h 76.6% 0.0 mm
04:09 12.2 °C 8.3 °C 1002.0 hPa NNE 3.3 km/h 8.4 km/h 77% 0.0 mm
04:14 12.1 °C 8.2 °C 1002.0 hPa NNE 3.9 km/h 8 km/h 77% 0.0 mm
04:19 12.1 °C 8.2 °C 1002.0 hPa NNE 4.2 km/h 9.3 km/h 77.2% 0.0 mm
04:24 11.9 °C 8.2 °C 1001.8 hPa NNE 4.7 km/h 9.7 km/h 78% 0.0 mm
04:29 11.9 °C 8.2 °C 1001.8 hPa NNE 3.7 km/h 7.4 km/h 78% 0.0 mm
04:34 11.9 °C 8.2 °C 1001.8 hPa NNE 2.2 km/h 8.4 km/h 78% 0.0 mm
04:39 11.8 °C 8.2 °C 1001.7 hPa NNE 2.6 km/h 8 km/h 78.6% 0.0 mm
04:44 11.8 °C 8.3 °C 1001.7 hPa North 3.2 km/h 7.6 km/h 79% 0.0 mm
04:49 11.8 °C 8.3 °C 1001.8 hPa North 3.1 km/h 8 km/h 79% 0.0 mm
04:54 11.8 °C 8.2 °C 1001.8 hPa North 2.9 km/h 4.8 km/h 78.7% 0.0 mm
04:59 11.8 °C 8.3 °C 1001.8 hPa NNE 2.9 km/h 5.8 km/h 79% 0.0 mm
05:04 11.8 °C 8.3 °C 1001.8 hPa NE 2.9 km/h 6.4 km/h 79% 0.0 mm
05:09 11.8 °C 8.2 °C 1001.8 hPa NE 2.7 km/h 7.6 km/h 78.6% 0.0 mm
05:14 11.8 °C 8.1 °C 1001.8 hPa NNE 2.2 km/h 8 km/h 78.2% 0.0 mm
05:19 11.8 °C 8.1 °C 1001.8 hPa NNE 2.8 km/h 8 km/h 78% 0.0 mm
05:24 11.8 °C 8.2 °C 1001.6 hPa NNE 3.9 km/h 8 km/h 78.5% 0.0 mm
05:29 11.8 °C 8.1 °C 1001.6 hPa NE 3.9 km/h 8.4 km/h 78% 0.0 mm
05:34 11.8 °C 8.1 °C 1001.6 hPa NE 3.9 km/h 9.3 km/h 78% 0.0 mm
05:39 11.7 °C 8.2 °C 1001.5 hPa NE 4.6 km/h 9.7 km/h 78.9% 0.0 mm
05:44 11.7 °C 8.1 °C 1001.5 hPa NE 5.8 km/h 9.7 km/h 79% 0.0 mm
05:49 11.6 °C 8.1 °C 1001.5 hPa NE 5.1 km/h 8.4 km/h 79% 0.0 mm
05:54 11.4 °C 8.1 °C 1001.3 hPa NNE 3.9 km/h 8.4 km/h 80% 0.0 mm
05:59 11.3 °C 8.1 °C 1001.3 hPa North 4.2 km/h 8 km/h 80.6% 0.0 mm
06:04 11.3 °C 8.2 °C 1001.4 hPa North 4.6 km/h 7.6 km/h 81% 0.0 mm
06:09 11.3 °C 8.2 °C 1001.4 hPa North 4.3 km/h 8 km/h 81% 0.0 mm
06:14 11.3 °C 8.2 °C 1001.4 hPa NO 3.9 km/h 8 km/h 81% 0.0 mm
06:19 11.4 °C 8.3 °C 1001.5 hPa NO 3.6 km/h 7.4 km/h 81% 0.0 mm
06:24 11.4 °C 8.3 °C 1001.5 hPa ONO 3.2 km/h 8.4 km/h 81% 0.0 mm
06:29 11.5 °C 8.3 °C 1001.5 hPa ONO 3.5 km/h 8 km/h 81% 0.0 mm
06:34 11.6 °C 8.3 °C 1001.7 hPa ONO 3.9 km/h 4.7 km/h 80.7% 0.0 mm
06:39 11.6 °C 8.3 °C 1001.7 hPa ONO 2.4 km/h 4.8 km/h 80% 0.0 mm
06:44 11.7 °C 8.4 °C 1001.7 hPa Calm   6.9 km/h 80% 0.0 mm
06:49 11.8 °C 8.4 °C 1001.7 hPa SE 1.4 km/h 10.3 km/h 80% 0.0 mm
06:54 11.8 °C 8.4 °C 1001.6 hPa SE 3.9 km/h 11.3 km/h 80% 0.0 mm
06:59 11.7 °C 8.4 °C 1001.6 hPa SE 5.3 km/h 11.3 km/h 80% 0.0 mm
07:04 11.7 °C 8.5 °C 1001.6 hPa SE 6.9 km/h 9.7 km/h 80.6% 0.0 mm
07:09 11.7 °C 8.5 °C 1001.5 hPa SE 5.8 km/h 9.7 km/h 80.5% 0.0 mm
07:14 11.7 °C 8.4 °C 1001.5 hPa SSE 3.9 km/h 8.4 km/h 80.4% 0.0 mm
07:19 11.6 °C 8.3 °C 1001.6 hPa SO 3.6 km/h 8 km/h 80% 0.0 mm
07:24 11.7 °C 8.4 °C 1001.6 hPa SO 3.2 km/h 8 km/h 80% 0.0 mm
07:29 11.7 °C 8.4 °C 1001.6 hPa SO 3.5 km/h 8 km/h 80% 0.0 mm
07:34 11.7 °C 8.4 °C 1001.6 hPa SO 3.9 km/h 6.4 km/h 80% 0.0 mm
07:39 11.7 °C 8.3 °C 1001.5 hPa SO 3.5 km/h 7.4 km/h 79.8% 0.0 mm
07:44 11.7 °C 8.3 °C 1001.5 hPa SO 2.9 km/h 8 km/h 79.6% 0.0 mm
07:49 11.8 °C 8.3 °C 1001.5 hPa SO 1.8 km/h 3.9 km/h 79% 0.0 mm
07:54 11.8 °C 8.3 °C 1001.5 hPa Calm   7.4 km/h 79% 0.0 mm
07:59 11.8 °C 8.3 °C 1001.5 hPa Oeste 1.5 km/h 8 km/h 79% 0.0 mm
08:04 11.8 °C 8.3 °C 1001.7 hPa Oeste 3.2 km/h 8 km/h 79% 0.0 mm
08:09 11.8 °C 8.3 °C 1001.7 hPa Oeste 3.2 km/h 10 km/h 79% 0.0 mm
08:14 11.8 °C 8.3 °C 1001.7 hPa OSO 3.2 km/h 9.7 km/h 79% 0.0 mm
08:19 11.8 °C 8.2 °C 1001.8 hPa SO 3.9 km/h 9.7 km/h 78.6% 0.0 mm
08:24 11.8 °C 8.2 °C 1001.8 hPa OSO 5 km/h 9.5 km/h 78.1% 0.0 mm
08:29 11.9 °C 8.1 °C 1001.8 hPa OSO 5 km/h 9.7 km/h 78% 0.0 mm
08:34 11.9 °C 8.2 °C 1001.8 hPa SO 5 km/h 9.7 km/h 78% 0.0 mm
08:39 11.9 °C 8.1 °C 1001.8 hPa SO 4.9 km/h 8 km/h 77.6% 0.0 mm
08:44 12.1 °C 8.2 °C 1001.8 hPa SO 4.7 km/h 8 km/h 77.2% 0.0 mm
08:49 12.2 °C 8.3 °C 1001.8 hPa SSO 4.7 km/h 8.4 km/h 76.8% 0.0 mm
08:54 12.3 °C 8.2 °C 1001.6 hPa SSE 4.7 km/h 10.3 km/h 76% 0.0 mm
08:59 12.4 °C 8.3 °C 1001.6 hPa SSE 5.4 km/h 11.3 km/h 76% 0.0 mm
09:04 12.4 °C 8.3 °C 1001.6 hPa Sur 6.5 km/h 11.1 km/h 76% 0.0 mm
09:09 12.5 °C 8.3 °C 1001.6 hPa SSO 6.5 km/h 11.3 km/h 75.9% 0.0 mm
09:14 12.6 °C 8.3 °C 1001.6 hPa SO 6.5 km/h 11.3 km/h 75.2% 0.0 mm
09:19 12.7 °C 8.3 °C 1001.6 hPa OSO 6.5 km/h 9.7 km/h 74.5% 0.0 mm
09:24 12.8 °C 8.3 °C 1001.6 hPa SO 6.5 km/h 9.7 km/h 74% 0.0 mm
09:29 12.8 °C 8.3 °C 1001.6 hPa SO 5.9 km/h 9.7 km/h 74% 0.0 mm
09:34 12.8 °C 8.3 °C 1001.7 hPa OSO 5 km/h 11.1 km/h 74% 0.0 mm
09:39 12.8 °C 8.3 °C 1001.7 hPa OSO 5 km/h 11.3 km/h 74% 0.0 mm
09:44 13 °C 8.4 °C 1001.7 hPa OSO 5 km/h 10.3 km/h 73.9% 0.0 mm
09:49 13.2 °C 8.4 °C 1001.7 hPa SO 5.3 km/h 11.9 km/h 73% 0.0 mm
09:54 13.3 °C 8.4 °C 1001.7 hPa SO 5.8 km/h 11.3 km/h 72.6% 0.0 mm
09:59 13.4 °C 8.4 °C 1001.7 hPa SO 6.1 km/h 11.3 km/h 72% 0.0 mm
10:04 13.5 °C 8.6 °C 1001.7 hPa SSO 6.5 km/h 11.3 km/h 72% 0.0 mm
10:09 13.7 °C 8.6 °C 1001.6 hPa Sur 5.8 km/h 10.3 km/h 71.5% 0.0 mm
10:14 13.8 °C 8.5 °C 1001.6 hPa SSE 4.7 km/h 11.3 km/h 70.1% 0.0 mm
10:19 14 °C 8.6 °C 1001.6 hPa Sur 5.3 km/h 11.3 km/h 69.7% 0.0 mm
10:24 14.1 °C 8.5 °C 1001.5 hPa SSO 6.5 km/h 11.3 km/h 69% 0.0 mm
10:29 14.2 °C 8.6 °C 1001.5 hPa SSE 6.2 km/h 11.9 km/h 69% 0.0 mm
10:34 14.3 °C 8.6 °C 1001.5 hPa SE 5.8 km/h 11.3 km/h 68.6% 0.0 mm
10:39 14.6 °C 8.8 °C 1001.5 hPa SE 5.8 km/h 10 km/h 68.3% 0.0 mm
10:44 14.9 °C 8.8 °C 1001.5 hPa SE 5.8 km/h 11.1 km/h 67% 0.0 mm
10:49 15.1 °C 8.8 °C 1001.6 hPa SSE 5.8 km/h 11.3 km/h 66.1% 0.0 mm
10:54 15.2 °C 8.6 °C 1001.6 hPa Oeste 5.8 km/h 9.7 km/h 64.8% 0.0 mm
10:59 15.2 °C 8.7 °C 1001.6 hPa SSE 5.8 km/h 11.1 km/h 65% 0.0 mm
11:04 15.2 °C 8.5 °C 1001.6 hPa SE 5.8 km/h 11.3 km/h 64.5% 0.0 mm
11:09 15.2 °C 8.3 °C 1001.5 hPa SSE 5.8 km/h 9.7 km/h 63.4% 0.0 mm
11:14 15.2 °C 8 °C 1001.5 hPa SSE 5.8 km/h 9.7 km/h 62.2% 0.0 mm
11:19 15.3 °C 7.8 °C 1001.5 hPa SE 5.4 km/h 9.7 km/h 61% 0.0 mm
11:24 15.6 °C 7.3 °C 1001.5 hPa OSO 4.7 km/h 9.7 km/h 58% 0.0 mm
11:29 15.9 °C 7.6 °C 1001.5 hPa North 4 km/h 9.7 km/h 57.7% 0.0 mm
11:34 16.1 °C 7.3 °C 1001.5 hPa SE 2.9 km/h 11.1 km/h 55.9% 0.0 mm
11:39 16.1 °C 7 °C 1001.3 hPa Sur 4 km/h 11.3 km/h 54.9% 0.0 mm
11:44 16.2 °C 6.6 °C 1001.3 hPa SO 5.8 km/h 9.5 km/h 53.1% 0.0 mm
11:49 16.4 °C 6.3 °C 1001.3 hPa ONO 5.4 km/h 9.7 km/h 51.4% 0.0 mm
11:54 16.4 °C 6 °C 1001.3 hPa NO 4.7 km/h 9.7 km/h 50.1% 0.0 mm
11:59 16.7 °C 6.5 °C 1001.3 hPa ENE 4.7 km/h 9.5 km/h 51.2% 0.0 mm
12:04 17.1 °C 6.2 °C 1001.3 hPa Este 4.6 km/h 9.7 km/h 48.9% 0.0 mm
12:09 17.3 °C 5.5 °C 1001.0 hPa SO 4.7 km/h 9.7 km/h 46% 0.0 mm
12:14 17.4 °C 5.8 °C 1001.0 hPa North 4.7 km/h 9.7 km/h 46.5% 0.0 mm
12:19 17.7 °C 5.6 °C 1001.0 hPa ENE 4.4 km/h 11.1 km/h 44.8% 0.0 mm
12:24 17.9 °C 5.2 °C 1000.7 hPa SE 3.9 km/h 11.3 km/h 43.3% 0.0 mm
12:29 17.9 °C 5.4 °C 1000.7 hPa ESE 4.6 km/h 13 km/h 43.9% 0.0 mm
12:34 18.1 °C 5.9 °C 1000.7 hPa ENE 5.8 km/h 14.8 km/h 44.8% 0.0 mm
12:39 18.1 °C 6 °C 1000.4 hPa SE 6.4 km/h 14.5 km/h 45.1% 0.0 mm
12:44 18.1 °C 6 °C 1000.4 hPa OSO 7.6 km/h 12.9 km/h 45% 0.0 mm
12:49 18.3 °C 6.2 °C 1000.4 hPa SE 6.6 km/h 19 km/h 45.2% 0.0 mm
12:54 18.3 °C 6.4 °C 1000.1 hPa SE 5 km/h 19.3 km/h 45.8% 0.0 mm
12:59 18.5 °C 6.5 °C 1000.1 hPa NE 5.4 km/h 15.6 km/h 45.5% 0.0 mm
13:04 18.7 °C 6.2 °C 1000.1 hPa SSO 5.8 km/h 29.1 km/h 44.1% 0.0 mm
13:09 18.8 °C 4.7 °C 999.9 hPa SSE 8.8 km/h 29.6 km/h 39.3% 0.0 mm
13:14 18.9 °C 4.4 °C 999.9 hPa SSE 13.7 km/h 29 km/h 38.5% 0.0 mm
13:19 18.8 °C 4.6 °C 999.9 hPa SSE 13.4 km/h 25.1 km/h 39.2% 0.0 mm
13:24 18.7 °C 4.6 °C 999.6 hPa SSE 13 km/h 25.9 km/h 39.3% 0.0 mm
13:29 18.6 °C 5.1 °C 999.6 hPa SE 13.3 km/h 30.9 km/h 41.1% 0.0 mm
13:34 18.7 °C 5.1 °C 999.6 hPa SE 13.7 km/h 32.2 km/h 40.9% 0.0 mm
13:39 18.8 °C 5.2 °C 999.6 hPa SE 13.7 km/h 32.2 km/h 41% 0.0 mm
13:44 19.1 °C 5.1 °C 999.6 hPa SSE 13.7 km/h 25.9 km/h 39.9% 0.0 mm
13:49 19.2 °C 5.2 °C 999.6 hPa SE 14.6 km/h 29.8 km/h 39.6% 0.0 mm
13:54 19 °C 5.7 °C 999.3 hPa ESE 16.1 km/h 35.2 km/h 41.7% 0.0 mm
13:59 18.9 °C 6.5 °C 999.3 hPa SE 18.2 km/h 35.9 km/h 44.1% 0.0 mm
14:04 18.9 °C 6.7 °C 999.3 hPa SSE 20.9 km/h 35.4 km/h 45.1% 0.0 mm
14:09 19 °C 6.3 °C 999.1 hPa SE 20.2 km/h 35.4 km/h 43.4% 0.0 mm
14:14 19.1 °C 6.6 °C 999.1 hPa SE 19 km/h 30.6 km/h 44.1% 0.0 mm
14:19 19.3 °C 5.2 °C 999.1 hPa SSE 18.6 km/h 29 km/h 39.6% 0.0 mm
14:24 19.3 °C 4.3 °C 998.9 hPa SE 18 km/h 33.3 km/h 37.1% 0.0 mm
14:29 19.5 °C 4.1 °C 998.9 hPa SSE 18 km/h 34.3 km/h 36.2% 0.0 mm
14:34 19.4 °C 4.1 °C 998.9 hPa SE 18 km/h 37 km/h 36.3% 0.0 mm
14:39 19.3 °C 3.9 °C 998.7 hPa SSE 19.5 km/h 37 km/h 36% 0.0 mm
14:44 19.3 °C 4.2 °C 998.7 hPa Sur 22.1 km/h 35.2 km/h 37% 0.0 mm
14:49 19.2 °C 4.2 °C 998.9 hPa Sur 21.6 km/h 46 km/h 37% 0.0 mm
14:54 18.8 °C 4.4 °C 998.9 hPa SSE 20.9 km/h 47.3 km/h 38.8% 0.0 mm
14:59 18.6 °C 4.5 °C 998.9 hPa SSE 23.6 km/h 46.7 km/h 39.3% 0.0 mm
15:04 18.8 °C 5.1 °C 998.9 hPa Sur 27 km/h 37 km/h 40.4% 0.0 mm
15:09 18.6 °C 5.5 °C 998.7 hPa SSE 24.8 km/h 38.9 km/h 42.1% 0.0 mm
15:14 18.2 °C 6 °C 998.7 hPa SSE 20.9 km/h 38.6 km/h 44.6% 0.0 mm
15:19 18.3 °C 6.1 °C 998.7 hPa SSE 21.5 km/h 37 km/h 45% 0.0 mm
15:24 18.3 °C 6.5 °C 998.7 hPa Sur 22.5 km/h 32.2 km/h 46% 0.0 mm
15:29 18.4 °C 6.9 °C 998.7 hPa Sur 21 km/h 29 km/h 46.9% 0.0 mm
15:34 18.4 °C 6.9 °C 998.7 hPa SSE 18.4 km/h 27.4 km/h 47% 0.0 mm
15:39 18.3 °C 7.1 °C 998.7 hPa Sur 17.3 km/h 25.7 km/h 48.1% 0.0 mm
15:44 18 °C 7.1 °C 998.7 hPa OSO 15.6 km/h 50.1 km/h 49.1% 0.0 mm
15:49 16.3 °C 7.3 °C 999.2 hPa Oeste 18 km/h 49.9 km/h 55.5% 0.3 mm
15:54 15 °C 7.1 °C 999.2 hPa Oeste 22.1 km/h 50.1 km/h 59.3% 0.5 mm
15:59 14.3 °C 6.6 °C 999.2 hPa Oeste 23.4 km/h 49.9 km/h 59.9% 0.5 mm
16:04 14.1 °C 6.4 °C 999.3 hPa Oeste 25.1 km/h 51.8 km/h 60% 0.5 mm
16:09 13.9 °C 6.6 °C 999.3 hPa OSO 25.5 km/h 51.5 km/h 61.4% 0.8 mm
16:14 13.6 °C 6.8 °C 999.3 hPa OSO 26.2 km/h 45.1 km/h 63.3% 1.0 mm
16:19 13.4 °C 7 °C 999.9 hPa SO 24.8 km/h 45.1 km/h 65.1% 1.0 mm
16:24 13.3 °C 7.2 °C 999.9 hPa OSO 22.1 km/h 38.9 km/h 66.7% 1.3 mm
16:29 13.1 °C 7.5 °C 999.9 hPa OSO 21.4 km/h 38.6 km/h 68.7% 1.5 mm
16:34 12.9 °C 7.8 °C 1000.2 hPa OSO 20.1 km/h 35.2 km/h 70.9% 1.8 mm
16:39 12.8 °C 8 °C 1000.2 hPa OSO 19.4 km/h 35.4 km/h 73% 2.0 mm
16:44 12.7 °C 8.2 °C 1000.2 hPa OSO 18 km/h 27.4 km/h 74.5% 2.0 mm
16:49 12.6 °C 8.4 °C 1000.2 hPa OSO 15.6 km/h 24.1 km/h 75.6% 2.0 mm
16:54 12.6 °C 8.5 °C 1000.0 hPa OSO 11.1 km/h 20.9 km/h 76.3% 1.8 mm
16:59 12.6 °C 8.6 °C 1000.0 hPa OSO 10.6 km/h 19.3 km/h 76.4% 1.8 mm
17:04 12.6 °C 8.6 °C 1000.1 hPa OSO 10 km/h 19.3 km/h 76.4% 1.8 mm
17:09 12.6 °C 8.7 °C 1000.1 hPa SO 9.4 km/h 14.8 km/h 77% 1.8 mm
17:14 12.8 °C 9 °C 1000.1 hPa Sur 8.4 km/h 19 km/h 78% 1.5 mm
17:19 12.7 °C 9 °C 1000.1 hPa SSE 9.4 km/h 19.3 km/h 78.2% 1.3 mm
17:24 12.7 °C 9.2 °C 999.8 hPa SSE 11.1 km/h 19.3 km/h 79.1% 1.0 mm
17:29 12.7 °C 9.1 °C 999.8 hPa SSE 11.5 km/h 19.3 km/h 79.2% 1.0 mm
17:34 12.6 °C 8.9 °C 999.8 hPa Sur 12.2 km/h 19.3 km/h 78.2% 0.8 mm
17:39 12.6 °C 8.8 °C 999.4 hPa Sur 10.4 km/h 14.8 km/h 77.5% 0.5 mm
17:44 12.8 °C 9 °C 999.4 hPa SE 7.6 km/h 14.8 km/h 77.8% 0.3 mm
17:49 12.8 °C 8.9 °C 999.4 hPa ESE 8 km/h 17.2 km/h 77% 0.3 mm
17:54 12.9 °C 8.7 °C 998.2 hPa SE 8.7 km/h 17.7 km/h 75.9% 0.3 mm
17:59 13 °C 8.6 °C 998.2 hPa SE 9.1 km/h 16.1 km/h 74.9% 0.0 mm
18:04 13.1 °C 8.7 °C 998.2 hPa SE 9.5 km/h 14.8 km/h 74.6% 0.0 mm
18:09 13.1 °C 8.4 °C 998.1 hPa SE 8.8 km/h 14.5 km/h 72.8% 0.0 mm
18:14 13.2 °C 8.6 °C 998.1 hPa SSE 7.6 km/h 11.3 km/h 73.3% 0.0 mm
18:19 13.3 °C 8.2 °C 998.3 hPa SSE 6.7 km/h 9.7 km/h 71.1% 0.0 mm
18:24 13.4 °C 8.1 °C 998.3 hPa Sur 5 km/h 11.1 km/h 70% 0.0 mm
18:29 13.6 °C 8 °C 998.3 hPa SSO 5 km/h 11.3 km/h 69.1% 0.0 mm
18:34 13.7 °C 8.1 °C 998.9 hPa OSO 5 km/h 9.7 km/h 69.4% 0.0 mm
18:39 13.8 °C 8.3 °C 998.9 hPa Oeste 4.3 km/h 8.4 km/h 69.6% 0.0 mm
18:44 13.8 °C 7.8 °C 998.9 hPa Sur 3.2 km/h 14.8 km/h 66.9% 0.0 mm
18:49 14.1 °C 8.1 °C 998.9 hPa Este 4.4 km/h 14.5 km/h 66.9% 0.0 mm
18:54 14.3 °C 8.1 °C 998.6 hPa SSE 6.5 km/h 11.9 km/h 66.6% 0.0 mm
18:59 14.4 °C 7.8 °C 998.6 hPa Sur 6.2 km/h 11.9 km/h 64.6% 0.0 mm
19:04 14.6 °C 7.8 °C 998.6 hPa SSO 5.8 km/h 11.3 km/h 63.8% 0.0 mm
19:09 14.7 °C 8.7 °C 998.5 hPa NNO 5.4 km/h 10 km/h 67.5% 0.0 mm
19:14 14.5 °C 9.2 °C 998.5 hPa NNE 4.7 km/h 11.9 km/h 70.2% 0.0 mm
19:19 14.3 °C 9.3 °C 998.6 hPa NNO 5.1 km/h 11.3 km/h 72% 0.0 mm
19:24 14.1 °C 9.4 °C 998.6 hPa North 5.8 km/h 11.1 km/h 73.4% 0.0 mm
19:29 13.9 °C 9.4 °C 998.6 hPa ONO 5.1 km/h 11.3 km/h 74% 0.0 mm
19:34 13.9 °C 9.5 °C 998.7 hPa ONO 3.9 km/h 6.4 km/h 74.9% 0.0 mm
19:39 13.9 °C 9.6 °C 998.7 hPa NO 3.6 km/h 10.3 km/h 75% 0.0 mm
19:44 13.8 °C 9.6 °C 998.7 hPa North 3.2 km/h 13.7 km/h 75.7% 0.0 mm
19:49 13.7 °C 9.5 °C 998.9 hPa NE 4.1 km/h 14.5 km/h 76% 0.0 mm
19:54 13.4 °C 9.3 °C 998.9 hPa NE 5.8 km/h 9.7 km/h 76% 0.0 mm
19:59 13.3 °C 9.1 °C 998.9 hPa NNE 5.8 km/h 13 km/h 75.7% 0.0 mm
20:04 13.3 °C 9.2 °C 998.9 hPa NNE 5.8 km/h 12.9 km/h 76.1% 0.0 mm
20:09 13.3 °C 9.3 °C 998.7 hPa NNE 5.8 km/h 10.3 km/h 76.9% 0.0 mm
20:14 13.3 °C 9.2 °C 998.7 hPa NE 5.8 km/h 11.3 km/h 76.4% 0.0 mm
20:19 13.3 °C 9.2 °C 999.0 hPa North 5.8 km/h 11.3 km/h 76.2% 0.0 mm
20:24 13.3 °C 9.2 °C 999.0 hPa NNE 5.8 km/h 11.3 km/h 76% 0.0 mm
20:29 13.3 °C 9.2 °C 999.0 hPa NNE 5.1 km/h 10 km/h 76% 0.0 mm
20:34 13.3 °C 9.1 °C 999.1 hPa ENE 3.9 km/h 9.7 km/h 75.8% 0.0 mm
20:39 13.3 °C 9 °C 999.1 hPa ONO 4.8 km/h 13.7 km/h 75.2% 0.0 mm
20:44 13.3 °C 9.3 °C 999.1 hPa ONO 6.5 km/h 14.5 km/h 76.7% 0.0 mm
20:49 13.2 °C 9.5 °C 999.9 hPa ONO 7.8 km/h 18 km/h 78% 0.0 mm
20:54 13.1 °C 9.5 °C 999.9 hPa NO 10 km/h 19.3 km/h 79% 0.0 mm
20:59 13.1 °C 9.6 °C 999.9 hPa NO 8.9 km/h 19.3 km/h 79.8% 0.0 mm
21:04 13 °C 9.1 °C 1000.3 hPa Oeste 7.6 km/h 19.3 km/h 77% 0.0 mm
21:09 13 °C 8.5 °C 1000.3 hPa ONO 7.9 km/h 19.3 km/h 73.7% 0.0 mm
21:14 13.1 °C 7.8 °C 1000.3 hPa NO 8.4 km/h 17.7 km/h 70.2% 0.0 mm
21:19 13.1 °C 7.2 °C 1000.6 hPa NO 9.3 km/h 25.9 km/h 67.4% 0.0 mm
21:24 12.8 °C 6.5 °C 1000.6 hPa ONO 11.1 km/h 37 km/h 65.1% 0.0 mm
21:29 12.7 °C 6.1 °C 1000.6 hPa ONO 12.9 km/h 37 km/h 64.2% 0.0 mm
21:34 12.7 °C 6.1 °C 1001.0 hPa NO 16.1 km/h 22.5 km/h 64.3% 0.0 mm
21:39 12.4 °C 5.7 °C 1001.0 hPa ONO 15.3 km/h 29.6 km/h 64% 0.0 mm
21:44 12.1 °C 5.5 °C 1001.0 hPa ONO 13.7 km/h 29 km/h 64% 0.0 mm
21:49 11.8 °C 5.2 °C 1001.2 hPa ONO 13.4 km/h 25.7 km/h 63.9% 0.0 mm
21:54 11.7 °C 5 °C 1001.2 hPa ONO 13 km/h 20.9 km/h 63.5% 0.0 mm
21:59 11.7 °C 4.8 °C 1001.2 hPa Oeste 11.1 km/h 16.7 km/h 63% 0.0 mm
22:04 11.7 °C 4.9 °C 1001.6 hPa ONO 8.7 km/h 16.1 km/h 63% 0.0 mm
22:09 11.7 °C 4.8 °C 1001.6 hPa Oeste 7.2 km/h 9.7 km/h 62.8% 0.0 mm
22:14 11.7 °C 4.8 °C 1001.6 hPa SO 4.7 km/h 9.7 km/h 62.4% 0.0 mm
22:19 11.7 °C 4.7 °C 1001.9 hPa SO 4.7 km/h 9.5 km/h 62.2% 0.0 mm
22:24 11.8 °C 4.7 °C 1001.9 hPa OSO 4.7 km/h 11.1 km/h 62% 0.0 mm
22:29 11.8 °C 4.8 °C 1001.9 hPa OSO 5.3 km/h 11.3 km/h 62.4% 0.0 mm
22:34 11.8 °C 5 °C 1002.4 hPa ONO 6.5 km/h 8.7 km/h 63% 0.0 mm
22:39 11.8 °C 5.1 °C 1002.4 hPa ONO 5.8 km/h 9.7 km/h 63.5% 0.0 mm
22:44 11.8 °C 5.1 °C 1002.4 hPa ONO 4.7 km/h 10 km/h 63.8% 0.0 mm
22:49 11.7 °C 5.2 °C 1002.4 hPa ONO 4.8 km/h 9.7 km/h 64.3% 0.0 mm
22:54 11.7 °C 5.2 °C 1002.3 hPa NO 5 km/h 11.1 km/h 64.8% 0.0 mm
22:59 11.5 °C 5.3 °C 1002.3 hPa NNO 4.5 km/h 11.3 km/h 65.8% 0.0 mm
23:04 11.3 °C 5.4 °C 1002.5 hPa NNO 3.9 km/h 7.4 km/h 67% 0.0 mm
23:09 11.2 °C 5.3 °C 1002.5 hPa NO 3.6 km/h 9.5 km/h 67% 0.0 mm
23:14 10.9 °C 5.2 °C 1002.5 hPa NO 3.2 km/h 9.7 km/h 67.9% 0.0 mm
23:19 10.8 °C 5.3 °C 1002.6 hPa ONO 3.9 km/h 11.1 km/h 68.7% 0.0 mm
23:24 10.7 °C 5.1 °C 1002.6 hPa Oeste 5 km/h 14 km/h 68% 0.0 mm
23:29 10.7 °C 5 °C 1002.6 hPa ONO 6.3 km/h 14.8 km/h 67.9% 0.0 mm
23:34 10.7 °C 4.8 °C 1002.6 hPa Oeste 8.7 km/h 14.8 km/h 67% 0.0 mm
23:39 10.7 °C 4.7 °C 1002.5 hPa ONO 8.7 km/h 14.5 km/h 66.5% 0.0 mm
23:44 10.7 °C 4.6 °C 1002.5 hPa ONO 8.7 km/h 11.9 km/h 66.1% 0.0 mm
23:49 10.7 °C 4.6 °C 1002.6 hPa ONO 8.1 km/h 11.9 km/h 66% 0.0 mm
23:54 10.7 °C 4.6 °C 1002.6 hPa ONO 6.9 km/h 11.9 km/h 66% 0.0 mm
23:59 10.6 °C 4.5 °C 1002.6 hPa ONO 7.2 km/h 11.3 km/h 66% 0.0 mm
Murcia-Puente Tocinos, España
Compliments of Weather Underground - 3 mb

La estación de MeteoMurcia.com, publica sus datos en los siguientes proyectos:

Weather Underground PWS IMURCIAP2 Meteoclimatic www.awekas.at

W3Counter
Web Analytics